Grogan, Missouri
Current Conditions -  °F | °C
As of 1:53 PM on Tuesday 25 Nov 2014 (Local Time) from KUNO Reporting Station
Clear Clear  
Wind Chill: 40°   Ceiling: Unl
Heat Index: 44°   Visibility: 10mi
Dew Point: 17°   Wind: 7mph
Humidity: 34%   Direction: 270°W
Pressure: 30.15"   Gusts: NA
Location:  37.2154°N, 91.991°W
Report Text: KUNO 251953Z AUTO 27006KT 10SM CLR 07/M08 A3015 RMK AO2 SLP215 T00671083
Loading
Personal Weather Stations






























Interactive Weather Map New forecast layout! Learn more

10-Day Weather Forecast

Advertisements
Track Severe Weather on mobile